Kezdőlap
METAR-TAF:

METAR-TAF

Repülőterek :

Nagybánya, Románia

földrajzi szélesség: 47-40N, földrajzi hosszúság: 023-35E, magasság: 218 m

Jelenlegi meteorológiai megfigyelések

A jelentés 33 perccel ezelõtt készült, 09:30 UTC
Keleti szél 6 kt
Hőmérséklet 25°C
Páratartalom 47%
Légköri nyomás 1022 hPa
Látótávolság 10 km, vagy több
Kevés felhő 4000 lábon

METAR: LRBM 280930Z 10006KT 9999 FEW040 25/13 Q1022

Idő: 13:03 (10:03 UTC)


TAF: hiányzik

Meteorológiai megfigyelések és előrejelzések több, mint 4000 repülőtéren (METAR és TAF jelentéseket).

A térképen piros és sárga pontok jelzik az elérhető meteorológiai állomásokat.

Mozgassa az egeret a pont fölött, hogy megjelenjen az állomás neve.

Azután kattintson az időjárási megfigyelések és előrejelzések megtekintéséhez.

A térkép megváltoztatása: kattintson a fekete keresztel jelölt zöld gombra ráközelítéshez, a vonallal jelölt zöld gombra távolításhoz, vagy a zöld nyilakra a szomszédos térképek eléréséhez.


METAR-TAF: